sensor_id;sensor_type;location;lat;lon;timestamp;pressure;altitude;pressure_sealevel;temperature;humidity
61554;BME280;47425;51.976;5.326;2023-04-21T00:01:15;101478.41;;;9.73;63.33
61554;BME280;47425;51.976;5.326;2023-04-21T00:03:43;101467.09;;;9.70;63.63
61554;BME280;47425;51.976;5.326;2023-04-21T00:06:11;101461.88;;;9.65;63.90
61554;BME280;47425;51.976;5.326;2023-04-21T00:08:39;101451.50;;;9.53;64.29
61554;BME280;47425;51.976;5.326;2023-04-21T00:11:05;101449.72;;;9.60;64.17
61554;BME280;47425;51.976;5.326;2023-04-21T00:13:32;101448.84;;;9.61;64.26
61554;BME280;47425;51.976;5.326;2023-04-21T00:16:00;101447.13;;;9.60;64.56
61554;BME280;47425;51.976;5.326;2023-04-21T00:18:26;101464.50;;;9.65;64.25
61554;BME280;47425;51.976;5.326;2023-04-21T00:20:54;101455.69;;;9.80;64.11
61554;BME280;47425;51.976;5.326;2023-04-21T00:23:21;101446.88;;;9.90;64.07
61554;BME280;47425;51.976;5.326;2023-04-21T00:25:47;101439.84;;;9.99;63.70
61554;BME280;47425;51.976;5.326;2023-04-21T00:28:13;101431.25;;;9.84;64.01
61554;BME280;47425;51.976;5.326;2023-04-21T00:30:41;101427.81;;;9.78;64.02
61554;BME280;47425;51.976;5.326;2023-04-21T00:33:09;101409.56;;;9.70;64.50
61554;BME280;47425;51.976;5.326;2023-04-21T00:35:35;101427.00;;;9.68;64.73
61554;BME280;47425;51.976;5.326;2023-04-21T00:38:03;101413.88;;;9.76;64.71
61554;BME280;47425;51.976;5.326;2023-04-21T00:40:29;101417.34;;;9.79;64.68
61554;BME280;47425;51.976;5.326;2023-04-21T00:42:56;101417.38;;;9.78;64.72
61554;BME280;47425;51.976;5.326;2023-04-21T00:45:23;101412.19;;;9.67;65.42
61554;BME280;47425;51.976;5.326;2023-04-21T00:47:50;101397.44;;;9.60;65.21
61554;BME280;47425;51.976;5.326;2023-04-21T00:50:18;101400.81;;;9.76;65.14
61554;BME280;47425;51.976;5.326;2023-04-21T00:52:45;101408.63;;;9.77;64.92
61554;BME280;47425;51.976;5.326;2023-04-21T00:55:13;101396.47;;;9.73;64.98
61554;BME280;47425;51.976;5.326;2023-04-21T00:57:40;101396.50;;;9.70;65.33
61554;BME280;47425;51.976;5.326;2023-04-21T01:00:07;101394.88;;;9.55;65.81
61554;BME280;47425;51.976;5.326;2023-04-21T01:02:35;101393.94;;;9.61;65.53
61554;BME280;47425;51.976;5.326;2023-04-21T01:05:04;101386.94;;;9.61;65.60
61554;BME280;47425;51.976;5.326;2023-04-21T01:07:32;101392.25;;;9.52;65.85
61554;BME280;47425;51.976;5.326;2023-04-21T01:09:58;101402.66;;;9.60;66.23
61554;BME280;47425;51.976;5.326;2023-04-21T01:12:25;101389.56;;;9.64;66.02
61554;BME280;47425;51.976;5.326;2023-04-21T01:14:53;101393.91;;;9.68;65.69
61554;BME280;47425;51.976;5.326;2023-04-21T01:17:19;101390.28;;;9.83;65.30
61554;BME280;47425;51.976;5.326;2023-04-21T01:19:46;101388.41;;;9.95;64.95
61554;BME280;47425;51.976;5.326;2023-04-21T01:22:16;101385.59;;;10.16;64.95
61554;BME280;47425;51.976;5.326;2023-04-21T01:24:43;101384.69;;;10.20;64.32
61554;BME280;47425;51.976;5.326;2023-04-21T01:27:11;101382.72;;;10.46;64.27
61554;BME280;47425;51.976;5.326;2023-04-21T01:29:38;101379.88;;;10.64;63.57
61554;BME280;47425;51.976;5.326;2023-04-21T01:32:07;101389.16;;;10.90;62.89
61554;BME280;47425;51.976;5.326;2023-04-21T01:34:34;101380.38;;;10.94;62.49
61554;BME280;47425;51.976;5.326;2023-04-21T01:37:01;101372.66;;;10.83;62.68
61554;BME280;47425;51.976;5.326;2023-04-21T01:39:29;101366.66;;;10.73;62.92
61554;BME280;47425;51.976;5.326;2023-04-21T01:41:57;101375.28;;;10.83;62.76
61554;BME280;47425;51.976;5.326;2023-04-21T01:44:24;101368.25;;;10.87;62.51
61554;BME280;47425;51.976;5.326;2023-04-21T01:46:50;101356.09;;;10.81;62.78
61554;BME280;47425;51.976;5.326;2023-04-21T01:49:18;101362.94;;;10.93;62.68
61554;BME280;47425;51.976;5.326;2023-04-21T01:51:44;101360.22;;;10.99;62.58
61554;BME280;47425;51.976;5.326;2023-04-21T01:54:11;101353.53;;;10.77;62.84
61554;BME280;47425;51.976;5.326;2023-04-21T01:56:39;101357.91;;;10.76;62.86
61554;BME280;47425;51.976;5.326;2023-04-21T01:59:07;101361.34;;;10.78;62.95
61554;BME280;47425;51.976;5.326;2023-04-21T02:01:33;101367.50;;;10.75;63.18
61554;BME280;47425;51.976;5.326;2023-04-21T02:04:02;101356.25;;;10.67;63.49
61554;BME280;47425;51.976;5.326;2023-04-21T02:06:29;101362.50;;;10.58;63.64
61554;BME280;47425;51.976;5.326;2023-04-21T02:08:58;101356.34;;;10.61;63.47
61554;BME280;47425;51.976;5.326;2023-04-21T02:11:26;101352.84;;;10.64;63.53
61554;BME280;47425;51.976;5.326;2023-04-21T02:13:55;101355.50;;;10.57;63.70
61554;BME280;47425;51.976;5.326;2023-04-21T02:16:22;101351.28;;;10.49;64.06
61554;BME280;47425;51.976;5.326;2023-04-21T02:18:50;101340.00;;;10.39;64.32
61554;BME280;47425;51.976;5.326;2023-04-21T02:21:18;101341.00;;;10.29;64.62
61554;BME280;47425;51.976;5.326;2023-04-21T02:23:44;101336.66;;;10.24;64.78
61554;BME280;47425;51.976;5.326;2023-04-21T02:26:12;101338.50;;;10.16;64.85
61554;BME280;47425;51.976;5.326;2023-04-21T02:28:38;101334.97;;;10.19;65.09
61554;BME280;47425;51.976;5.326;2023-04-21T02:31:07;101334.06;;;10.23;65.13
61554;BME280;47425;51.976;5.326;2023-04-21T02:33:33;101343.50;;;10.41;64.88
61554;BME280;47425;51.976;5.326;2023-04-21T02:36:00;101352.31;;;10.35;64.91
61554;BME280;47425;51.976;5.326;2023-04-21T02:38:26;101336.66;;;10.26;65.16
61554;BME280;47425;51.976;5.326;2023-04-21T02:40:53;101333.19;;;10.24;65.27
61554;BME280;47425;51.976;5.326;2023-04-21T02:43:20;101329.75;;;10.19;65.46
61554;BME280;47425;51.976;5.326;2023-04-21T02:45:47;101327.31;;;10.03;65.84
61554;BME280;47425;51.976;5.326;2023-04-21T02:48:16;101328.25;;;9.95;66.17
61554;BME280;47425;51.976;5.326;2023-04-21T02:50:49;101326.53;;;9.92;66.22
61554;BME280;47425;51.976;5.326;2023-04-21T02:53:17;101324.78;;;9.93;66.55
61554;BME280;47425;51.976;5.326;2023-04-21T02:55:43;101327.38;;;9.96;66.48
61554;BME280;47425;51.976;5.326;2023-04-21T02:58:10;101323.88;;;9.94;66.66
61554;BME280;47425;51.976;5.326;2023-04-21T03:00:37;101322.19;;;9.91;66.84
61554;BME280;47425;51.976;5.326;2023-04-21T03:03:04;101320.38;;;9.98;66.89
61554;BME280;47425;51.976;5.326;2023-04-21T03:05:33;101319.31;;;10.16;66.42
61554;BME280;47425;51.976;5.326;2023-04-21T03:07:59;101324.63;;;10.08;66.39
61554;BME280;47425;51.976;5.326;2023-04-21T03:10:27;101333.38;;;10.05;66.55
61554;BME280;47425;51.976;5.326;2023-04-21T03:12:54;101313.38;;;9.98;66.76
61554;BME280;47425;51.976;5.326;2023-04-21T03:15:22;101311.72;;;9.89;67.02
61554;BME280;47425;51.976;5.326;2023-04-21T03:17:50;101310.16;;;9.71;67.49
61554;BME280;47425;51.976;5.326;2023-04-21T03:20:16;101311.91;;;9.69;67.66
61554;BME280;47425;51.976;5.326;2023-04-21T03:22:44;101303.28;;;9.64;67.86
61554;BME280;47425;51.976;5.326;2023-04-21T03:25:10;101305.78;;;9.73;67.99
61554;BME280;47425;51.976;5.326;2023-04-21T03:27:38;101305.69;;;9.81;67.54
61554;BME280;47425;51.976;5.326;2023-04-21T03:30:05;101307.31;;;9.95;67.54
61554;BME280;47425;51.976;5.326;2023-04-21T03:32:31;101304.69;;;9.96;67.51
61554;BME280;47425;51.976;5.326;2023-04-21T03:34:58;101293.41;;;9.89;67.39
61554;BME280;47425;51.976;5.326;2023-04-21T03:37:25;101289.09;;;9.85;67.49
61554;BME280;47425;51.976;5.326;2023-04-21T03:39:53;101291.75;;;9.82;67.73
61554;BME280;47425;51.976;5.326;2023-04-21T03:42:20;101292.75;;;9.69;68.27
61554;BME280;47425;51.976;5.326;2023-04-21T03:44:48;101291.91;;;9.65;68.34
61554;BME280;47425;51.976;5.326;2023-04-21T03:47:15;101285.72;;;9.74;68.17
61554;BME280;47425;51.976;5.326;2023-04-21T03:49:41;101279.53;;;9.83;67.88
61554;BME280;47425;51.976;5.326;2023-04-21T03:52:08;101282.13;;;9.86;68.00
61554;BME280;47425;51.976;5.326;2023-04-21T03:54:35;101282.09;;;9.89;67.75
61554;BME280;47425;51.976;5.326;2023-04-21T03:57:03;101280.41;;;9.80;68.08
61554;BME280;47425;51.976;5.326;2023-04-21T03:59:29;101290.94;;;9.76;68.31
61554;BME280;47425;51.976;5.326;2023-04-21T04:01:56;101279.53;;;9.81;68.33
61554;BME280;47425;51.976;5.326;2023-04-21T04:04:23;101283.03;;;9.80;68.24
61554;BME280;47425;51.976;5.326;2023-04-21T04:06:50;101276.84;;;9.90;68.60
61554;BME280;47425;51.976;5.326;2023-04-21T04:09:16;101277.63;;;9.97;68.12
61554;BME280;47425;51.976;5.326;2023-04-21T04:11:44;101274.97;;;10.03;68.20
61554;BME280;47425;51.976;5.326;2023-04-21T04:14:12;101275.78;;;10.05;67.66
61554;BME280;47425;51.976;5.326;2023-04-21T04:16:38;101275.75;;;10.10;67.91
61554;BME280;47425;51.976;5.326;2023-04-21T04:19:05;101275.72;;;10.13;67.55
61554;BME280;47425;51.976;5.326;2023-04-21T04:21:33;101267.94;;;10.05;67.61
61554;BME280;47425;51.976;5.326;2023-04-21T04:24:00;101266.31;;;9.97;67.98
61554;BME280;47425;51.976;5.326;2023-04-21T04:26:27;101268.09;;;9.93;68.11
61554;BME280;47425;51.976;5.326;2023-04-21T04:28:55;101260.22;;;9.95;68.11
61554;BME280;47425;51.976;5.326;2023-04-21T04:31:23;101265.41;;;10.01;68.13
61554;BME280;47425;51.976;5.326;2023-04-21T04:33:49;101267.16;;;9.97;68.20
61554;BME280;47425;51.976;5.326;2023-04-21T04:36:16;101268.06;;;9.95;68.33
61554;BME280;47425;51.976;5.326;2023-04-21T04:38:43;101275.84;;;10.02;68.22
61554;BME280;47425;51.976;5.326;2023-04-21T04:41:10;101280.91;;;10.16;68.14
61554;BME280;47425;51.976;5.326;2023-04-21T04:43:36;101279.94;;;10.27;67.54
61554;BME280;47425;51.976;5.326;2023-04-21T04:46:03;101279.88;;;10.30;67.68
61554;BME280;47425;51.976;5.326;2023-04-21T04:48:31;101286.09;;;10.22;67.87
61554;BME280;47425;51.976;5.326;2023-04-21T04:50:57;101283.41;;;10.25;67.88
61554;BME280;47425;51.976;5.326;2023-04-21T04:53:24;101286.91;;;10.28;67.72
61554;BME280;47425;51.976;5.326;2023-04-21T04:55:52;101280.75;;;10.30;67.66
61554;BME280;47425;51.976;5.326;2023-04-21T04:58:18;101278.91;;;10.41;67.47
61554;BME280;47425;51.976;5.326;2023-04-21T05:00:45;101272.66;;;10.52;66.94
61554;BME280;47425;51.976;5.326;2023-04-21T05:03:12;101267.44;;;10.50;67.04
61554;BME280;47425;51.976;5.326;2023-04-21T05:05:40;101276.09;;;10.57;67.08
61554;BME280;47425;51.976;5.326;2023-04-21T05:08:07;101281.13;;;10.71;66.51
61554;BME280;47425;51.976;5.326;2023-04-21T05:10:33;101285.53;;;10.70;66.56
61554;BME280;47425;51.976;5.326;2023-04-21T05:13:01;101281.22;;;10.66;66.22
61554;BME280;47425;51.976;5.326;2023-04-21T05:15:27;101281.44;;;10.49;66.76
61554;BME280;47425;51.976;5.326;2023-04-21T05:17:54;101277.84;;;10.55;67.01
61554;BME280;47425;51.976;5.326;2023-04-21T05:20:20;101284.91;;;10.50;66.95
61554;BME280;47425;51.976;5.326;2023-04-21T05:22:49;101287.63;;;10.42;66.96
61554;BME280;47425;51.976;5.326;2023-04-21T05:25:16;101291.91;;;10.49;67.17
61554;BME280;47425;51.976;5.326;2023-04-21T05:27:42;101293.53;;;10.60;66.85
61554;BME280;47425;51.976;5.326;2023-04-21T05:30:10;101300.31;;;10.73;66.93
61554;BME280;47425;51.976;5.326;2023-04-21T05:32:37;101296.66;;;10.85;66.58
61554;BME280;47425;51.976;5.326;2023-04-21T05:35:23;101299.22;;;10.89;66.13
61554;BME280;47425;51.976;5.326;2023-04-21T05:37:51;101301.91;;;10.83;66.51
61554;BME280;47425;51.976;5.326;2023-04-21T05:40:19;101298.34;;;10.89;66.16
61554;BME280;47425;51.976;5.326;2023-04-21T05:42:45;101303.56;;;10.90;66.20
61554;BME280;47425;51.976;5.326;2023-04-21T05:45:12;101308.03;;;10.82;66.36
61554;BME280;47425;51.976;5.326;2023-04-21T05:47:38;101310.78;;;10.74;66.67
61554;BME280;47425;51.976;5.326;2023-04-21T05:50:06;101315.06;;;10.80;66.69
61554;BME280;47425;51.976;5.326;2023-04-21T05:52:33;101318.66;;;10.73;66.71
61554;BME280;47425;51.976;5.326;2023-04-21T05:55:02;101316.94;;;10.72;66.93
61554;BME280;47425;51.976;5.326;2023-04-21T05:57:29;101318.59;;;10.78;66.94
61554;BME280;47425;51.976;5.326;2023-04-21T06:00:12;101322.03;;;10.83;67.01
61554;BME280;47425;51.976;5.326;2023-04-21T06:02:38;101324.41;;;10.98;66.76
61554;BME280;47425;51.976;5.326;2023-04-21T06:05:05;101319.19;;;10.97;66.79
61554;BME280;47425;51.976;5.326;2023-04-21T06:07:31;101320.97;;;10.96;66.76
61554;BME280;47425;51.976;5.326;2023-04-21T06:10:04;101319.97;;;11.03;66.92
61554;BME280;47425;51.976;5.326;2023-04-21T06:12:30;101321.59;;;11.12;66.65
61554;BME280;47425;51.976;5.326;2023-04-21T06:14:57;101321.72;;;11.04;66.63
61554;BME280;47425;51.976;5.326;2023-04-21T06:17:43;101313.75;;;11.11;66.71
61554;BME280;47425;51.976;5.326;2023-04-21T06:20:11;101312.81;;;11.13;66.73
61554;BME280;47425;51.976;5.326;2023-04-21T06:22:37;101320.63;;;11.18;66.80
61554;BME280;47425;51.976;5.326;2023-04-21T06:25:06;101322.91;;;11.39;66.34
61554;BME280;47425;51.976;5.326;2023-04-21T06:27:33;101326.97;;;11.59;65.79
61554;BME280;47425;51.976;5.326;2023-04-21T06:30:00;101322.34;;;11.73;65.12
61554;BME280;47425;51.976;5.326;2023-04-21T06:32:26;101322.09;;;11.89;64.93
61554;BME280;47425;51.976;5.326;2023-04-21T06:34:52;101314.69;;;12.11;63.84
61554;BME280;47425;51.976;5.326;2023-04-21T06:37:20;101310.88;;;12.28;63.71
61554;BME280;47425;51.976;5.326;2023-04-21T06:39:47;101311.09;;;12.15;63.81
61554;BME280;47425;51.976;5.326;2023-04-21T06:42:14;101313.31;;;12.38;63.82
61554;BME280;47425;51.976;5.326;2023-04-21T06:44:42;101312.41;;;12.39;63.64
61554;BME280;47425;51.976;5.326;2023-04-21T06:47:08;101304.78;;;12.25;64.07
61554;BME280;47425;51.976;5.326;2023-04-21T06:49:35;101315.31;;;12.24;64.31
61554;BME280;47425;51.976;5.326;2023-04-21T06:52:01;101312.38;;;12.41;63.56
61554;BME280;47425;51.976;5.326;2023-04-21T06:54:29;101307.91;;;12.45;63.50
61554;BME280;47425;51.976;5.326;2023-04-21T06:56:55;101305.09;;;12.54;63.45
61554;BME280;47425;51.976;5.326;2023-04-21T06:59:23;101314.22;;;12.76;62.81
61554;BME280;47425;51.976;5.326;2023-04-21T07:01:50;101307.00;;;12.86;62.64
61554;BME280;47425;51.976;5.326;2023-04-21T07:04:18;101302.13;;;13.08;62.44
61554;BME280;47425;51.976;5.326;2023-04-21T07:06:45;101313.25;;;13.20;61.29
61554;BME280;47425;51.976;5.326;2023-04-21T07:09:12;101306.13;;;13.25;61.46
61554;BME280;47425;51.976;5.326;2023-04-21T07:11:40;101309.41;;;13.36;60.31
61554;BME280;47425;51.976;5.326;2023-04-21T07:14:06;101300.78;;;13.64;59.08
61554;BME280;47425;51.976;5.326;2023-04-21T07:16:34;101308.16;;;13.86;59.21
61554;BME280;47425;51.976;5.326;2023-04-21T07:19:01;101305.34;;;13.92;58.80
61554;BME280;47425;51.976;5.326;2023-04-21T07:21:28;101306.03;;;13.99;59.08
61554;BME280;47425;51.976;5.326;2023-04-21T07:23:56;101306.63;;;14.08;58.73
61554;BME280;47425;51.976;5.326;2023-04-21T07:26:22;101300.06;;;14.25;58.20
61554;BME280;47425;51.976;5.326;2023-04-21T07:28:49;101310.59;;;14.25;57.73
61554;BME280;47425;51.976;5.326;2023-04-21T07:31:18;101307.66;;;14.36;56.54
61554;BME280;47425;51.976;5.326;2023-04-21T07:33:46;101311.34;;;14.60;55.50
61554;BME280;47425;51.976;5.326;2023-04-21T07:36:12;101320.34;;;14.83;54.12
61554;BME280;47425;51.976;5.326;2023-04-21T07:38:41;101317.06;;;15.04;52.64
61554;BME280;47425;51.976;5.326;2023-04-21T07:41:09;101317.78;;;15.09;53.02
61554;BME280;47425;51.976;5.326;2023-04-21T07:43:35;101324.63;;;15.15;53.20
61554;BME280;47425;51.976;5.326;2023-04-21T07:46:02;101319.63;;;15.06;54.77
61554;BME280;47425;51.976;5.326;2023-04-21T07:48:29;101318.41;;;14.89;55.26
61554;BME280;47425;51.976;5.326;2023-04-21T07:50:57;101315.25;;;14.76;54.75
61554;BME280;47425;51.976;5.326;2023-04-21T07:53:24;101300.34;;;14.75;54.17
61554;BME280;47425;51.976;5.326;2023-04-21T07:55:51;101312.13;;;14.93;52.43
61554;BME280;47425;51.976;5.326;2023-04-21T07:58:19;101312.44;;;15.11;52.35
61554;BME280;47425;51.976;5.326;2023-04-21T08:00:46;101313.84;;;15.23;51.36
61554;BME280;47425;51.976;5.326;2023-04-21T08:03:12;101309.09;;;15.59;52.61
61554;BME280;47425;51.976;5.326;2023-04-21T08:05:40;101323.56;;;15.48;53.09
61554;BME280;47425;51.976;5.326;2023-04-21T08:08:08;101321.44;;;15.32;52.12
61554;BME280;47425;51.976;5.326;2023-04-21T08:10:34;101307.63;;;15.51;51.40
61554;BME280;47425;51.976;5.326;2023-04-21T08:13:01;101307.97;;;15.67;51.43
61554;BME280;47425;51.976;5.326;2023-04-21T08:15:31;101299.63;;;15.79;51.44
61554;BME280;47425;51.976;5.326;2023-04-21T08:17:58;101305.06;;;15.74;52.78
61554;BME280;47425;51.976;5.326;2023-04-21T08:20:24;101303.06;;;15.56;52.86
61554;BME280;47425;51.976;5.326;2023-04-21T08:22:51;101300.22;;;15.62;52.90
61554;BME280;47425;51.976;5.326;2023-04-21T08:25:20;101306.47;;;15.59;52.35
61554;BME280;47425;51.976;5.326;2023-04-21T08:27:46;101305.69;;;15.56;52.77
61554;BME280;47425;51.976;5.326;2023-04-21T08:30:13;101305.44;;;15.64;51.84
61554;BME280;47425;51.976;5.326;2023-04-21T08:32:41;101308.28;;;15.84;50.03
61554;BME280;47425;51.976;5.326;2023-04-21T08:35:08;101306.06;;;15.97;50.19
61554;BME280;47425;51.976;5.326;2023-04-21T08:37:35;101307.03;;;15.94;51.11
61554;BME280;47425;51.976;5.326;2023-04-21T08:40:01;101300.34;;;15.84;51.12
61554;BME280;47425;51.976;5.326;2023-04-21T08:42:31;101315.72;;;15.98;50.99
61554;BME280;47425;51.976;5.326;2023-04-21T08:44:57;101305.09;;;16.00;49.89
61554;BME280;47425;51.976;5.326;2023-04-21T08:47:24;101298.28;;;16.18;49.55
61554;BME280;47425;51.976;5.326;2023-04-21T08:49:51;101290.25;;;16.44;49.18
61554;BME280;47425;51.976;5.326;2023-04-21T08:52:18;101293.81;;;16.43;50.46
61554;BME280;47425;51.976;5.326;2023-04-21T08:54:46;101287.72;;;16.18;51.11
61554;BME280;47425;51.976;5.326;2023-04-21T08:57:16;101285.25;;;16.13;50.73
61554;BME280;47425;51.976;5.326;2023-04-21T08:59:45;101284.69;;;16.05;50.90
61554;BME280;47425;51.976;5.326;2023-04-21T09:02:12;101285.53;;;16.05;51.00
61554;BME280;47425;51.976;5.326;2023-04-21T09:04:39;101284.84;;;16.24;49.56
61554;BME280;47425;51.976;5.326;2023-04-21T09:07:07;101294.91;;;16.38;51.05
61554;BME280;47425;51.976;5.326;2023-04-21T09:12:16;101285.53;;;15.80;52.09
61554;BME280;47425;51.976;5.326;2023-04-21T09:14:45;101300.41;;;15.83;51.38
61554;BME280;47425;51.976;5.326;2023-04-21T09:17:13;101284.63;;;16.06;50.89
61554;BME280;47425;51.976;5.326;2023-04-21T09:19:40;101292.28;;;15.89;52.21
61554;BME280;47425;51.976;5.326;2023-04-21T09:22:06;101285.97;;;15.93;51.63
61554;BME280;47425;51.976;5.326;2023-04-21T09:24:34;101284.03;;;15.98;52.11
61554;BME280;47425;51.976;5.326;2023-04-21T09:27:01;101280.63;;;15.94;51.89
61554;BME280;47425;51.976;5.326;2023-04-21T09:29:28;101282.69;;;16.10;50.95
61554;BME280;47425;51.976;5.326;2023-04-21T09:31:56;101284.72;;;16.27;51.45
61554;BME280;47425;51.976;5.326;2023-04-21T09:37:06;101289.66;;;16.13;51.14
61554;BME280;47425;51.976;5.326;2023-04-21T09:39:36;101287.91;;;16.13;50.92
61554;BME280;47425;51.976;5.326;2023-04-21T09:42:02;101287.50;;;16.24;51.44
61554;BME280;47425;51.976;5.326;2023-04-21T09:44:30;101282.22;;;16.24;51.48
61554;BME280;47425;51.976;5.326;2023-04-21T09:46:59;101276.97;;;16.46;49.44
61554;BME280;47425;51.976;5.326;2023-04-21T09:49:27;101268.53;;;16.36;50.83
61554;BME280;47425;51.976;5.326;2023-04-21T09:51:54;101276.09;;;15.98;51.31
61554;BME280;47425;51.976;5.326;2023-04-21T09:54:25;101275.84;;;15.81;51.78
61554;BME280;47425;51.976;5.326;2023-04-21T09:56:57;101273.22;;;15.79;52.35
61554;BME280;47425;51.976;5.326;2023-04-21T09:59:24;101274.97;;;16.05;52.52
61554;BME280;47425;51.976;5.326;2023-04-21T10:01:53;101274.28;;;16.24;51.07
61554;BME280;47425;51.976;5.326;2023-04-21T10:04:22;101281.31;;;16.25;50.85
61554;BME280;47425;51.976;5.326;2023-04-21T10:06:50;101278.75;;;16.22;50.74
61554;BME280;47425;51.976;5.326;2023-04-21T10:09:17;101274.84;;;16.32;50.86
61554;BME280;47425;51.976;5.326;2023-04-21T10:11:46;101267.72;;;16.34;50.50
61554;BME280;47425;51.976;5.326;2023-04-21T10:14:13;101269.75;;;16.27;50.20
61554;BME280;47425;51.976;5.326;2023-04-21T10:16:40;101269.75;;;16.27;50.33
61554;BME280;47425;51.976;5.326;2023-04-21T10:19:25;101264.22;;;16.34;50.72
61554;BME280;47425;51.976;5.326;2023-04-21T10:21:54;101264.50;;;16.26;51.19
61554;BME280;47425;51.976;5.326;2023-04-21T10:24:21;101264.47;;;16.27;50.01
61554;BME280;47425;51.976;5.326;2023-04-21T10:27:01;101271.38;;;16.32;50.16
61554;BME280;47425;51.976;5.326;2023-04-21T10:29:29;101267.56;;;16.39;50.09
61554;BME280;47425;51.976;5.326;2023-04-21T10:31:56;101264.84;;;16.40;50.08
61554;BME280;47425;51.976;5.326;2023-04-21T10:34:34;101263.75;;;16.46;49.93
61554;BME280;47425;51.976;5.326;2023-04-21T10:39:54;101253.22;;;16.68;48.96
61554;BME280;47425;51.976;5.326;2023-04-21T10:42:24;101251.66;;;16.85;48.62
61554;BME280;47425;51.976;5.326;2023-04-21T10:44:53;101254.03;;;16.92;49.24
61554;BME280;47425;51.976;5.326;2023-04-21T10:47:24;101248.31;;;17.03;48.59
61554;BME280;47425;51.976;5.326;2023-04-21T10:49:53;101249.22;;;17.02;49.62
61554;BME280;47425;51.976;5.326;2023-04-21T10:52:21;101241.03;;;16.86;49.86
61554;BME280;47425;51.976;5.326;2023-04-21T10:55:04;101236.72;;;16.84;50.48
61554;BME280;47425;51.976;5.326;2023-04-21T10:57:33;101235.31;;;16.75;50.00
61554;BME280;47425;51.976;5.326;2023-04-21T10:59:59;101224.44;;;16.83;50.10
61554;BME280;47425;51.976;5.326;2023-04-21T11:02:29;101229.94;;;17.00;50.15
61554;BME280;47425;51.976;5.326;2023-04-21T11:04:59;101224.78;;;17.18;49.17
61554;BME280;47425;51.976;5.326;2023-04-21T11:07:25;101229.75;;;17.25;48.24
61554;BME280;47425;51.976;5.326;2023-04-21T11:09:55;101221.03;;;17.23;47.94
61554;BME280;47425;51.976;5.326;2023-04-21T11:12:25;101218.69;;;17.16;46.91
61554;BME280;47425;51.976;5.326;2023-04-21T11:14:52;101214.06;;;17.21;48.53
61554;BME280;47425;51.976;5.326;2023-04-21T11:17:19;101212.41;;;17.18;48.86
61554;BME280;47425;51.976;5.326;2023-04-21T11:19:48;101210.28;;;17.06;49.15
61554;BME280;47425;51.976;5.326;2023-04-21T11:22:16;101203.25;;;17.05;48.88
61554;BME280;47425;51.976;5.326;2023-04-21T11:24:43;101205.38;;;17.17;48.67
61554;BME280;47425;51.976;5.326;2023-04-21T11:27:10;101201.28;;;17.10;48.74
61554;BME280;47425;51.976;5.326;2023-04-21T11:29:36;101195.31;;;17.05;49.66
61554;BME280;47425;51.976;5.326;2023-04-21T11:32:04;101196.78;;;17.12;48.36
61554;BME280;47425;51.976;5.326;2023-04-21T11:34:31;101190.53;;;17.35;49.03
61554;BME280;47425;51.976;5.326;2023-04-21T11:36:58;101179.56;;;17.43;48.77
61554;BME280;47425;51.976;5.326;2023-04-21T11:39:26;101180.16;;;17.70;46.51
61554;BME280;47425;51.976;5.326;2023-04-21T11:41:53;101171.19;;;17.93;46.44
61554;BME280;47425;51.976;5.326;2023-04-21T11:44:30;101172.63;;;17.61;46.74
61554;BME280;47425;51.976;5.326;2023-04-21T11:46:57;101167.19;;;17.64;46.76
61554;BME280;47425;51.976;5.326;2023-04-21T11:49:25;101171.81;;;17.80;46.04
61554;BME280;47425;51.976;5.326;2023-04-21T11:51:53;101164.09;;;17.94;45.75
61554;BME280;47425;51.976;5.326;2023-04-21T11:54:20;101160.25;;;18.01;45.09
61554;BME280;47425;51.976;5.326;2023-04-21T11:56:49;101154.63;;;18.07;44.55
61554;BME280;47425;51.976;5.326;2023-04-21T11:59:36;101155.38;;;18.11;44.41
61554;BME280;47425;51.976;5.326;2023-04-21T12:02:02;101149.28;;;18.09;44.26
61554;BME280;47425;51.976;5.326;2023-04-21T12:04:29;101156.00;;;18.16;44.82
61554;BME280;47425;51.976;5.326;2023-04-21T12:06:57;101154.56;;;18.28;45.00
61554;BME280;47425;51.976;5.326;2023-04-21T12:09:24;101160.72;;;18.28;43.72
61554;BME280;47425;51.976;5.326;2023-04-21T12:11:52;101145.38;;;18.35;43.88
61554;BME280;47425;51.976;5.326;2023-04-21T12:14:20;101145.81;;;18.26;44.84
61554;BME280;47425;51.976;5.326;2023-04-21T12:16:48;101147.47;;;18.28;44.81
61554;BME280;47425;51.976;5.326;2023-04-21T12:19:21;101143.25;;;18.24;45.45
61554;BME280;47425;51.976;5.326;2023-04-21T12:21:51;101143.56;;;18.18;45.43
61554;BME280;47425;51.976;5.326;2023-04-21T12:24:17;101137.13;;;18.05;45.20
61554;BME280;47425;51.976;5.326;2023-04-21T12:26:45;101147.34;;;18.13;45.59
61554;BME280;47425;51.976;5.326;2023-04-21T12:29:13;101120.91;;;17.92;45.87
61554;BME280;47425;51.976;5.326;2023-04-21T12:31:40;101120.97;;;17.71;46.68
61554;BME280;47425;51.976;5.326;2023-04-21T12:34:07;101118.09;;;17.76;46.71
61554;BME280;47425;51.976;5.326;2023-04-21T12:36:34;101124.56;;;18.08;46.23
61554;BME280;47425;51.976;5.326;2023-04-21T12:39:01;101120.72;;;18.16;45.88
61554;BME280;47425;51.976;5.326;2023-04-21T12:41:27;101117.13;;;18.34;45.07
61554;BME280;47425;51.976;5.326;2023-04-21T12:43:55;101113.84;;;18.48;44.49
61554;BME280;47425;51.976;5.326;2023-04-21T12:46:23;101106.25;;;18.04;45.14
61554;BME280;47425;51.976;5.326;2023-04-21T12:48:50;101102.41;;;17.90;45.65
61554;BME280;47425;51.976;5.326;2023-04-21T12:51:17;101107.59;;;17.93;45.86
61554;BME280;47425;51.976;5.326;2023-04-21T12:53:45;101109.06;;;17.80;46.27
61554;BME280;47425;51.976;5.326;2023-04-21T12:56:11;101105.41;;;17.64;46.56
61554;BME280;47425;51.976;5.326;2023-04-21T12:58:58;101103.69;;;17.43;46.91
61554;BME280;47425;51.976;5.326;2023-04-21T13:01:26;101095.81;;;17.61;46.37
61554;BME280;47425;51.976;5.326;2023-04-21T13:03:54;101097.31;;;17.67;46.08